Paradise Valley, Nevada Weather observations

Data are for 10 minute period ending at time listed.
 Day   Time   Solar   Ave.   Ave.  Ave.  Vector  Max.   Baro.   Total    
  of    of     Rad.   Air    Rel.  Wind   Wind   Wind  Press.  Precip.   
Year   Day            Temp.  Hum.  Speed  Dir.   Gust                    
2015   (PST)  Kw/m2    F      %     mph   deg.    mph    mb.     in.     
-------------------------------------------------------------------------
 143   20:50   0.00   51.4    91    2.0    29     3.8   864.3    0.00 
 143   21:00   0.00   51.4    92    4.6    28     5.8   864.6    0.00 
 143   21:10   0.00   51.4    92    5.4    20    10.4   864.8    0.00 
 143   21:20   0.00   51.8    90    4.7    55     8.6   865.0    0.00 
 143   21:30   0.00   52.5    88    2.8    70     6.0   865.0    0.00 
 143   21:40   0.00   52.7    85    1.7   174     3.2   865.0    0.00 
 143   21:50   0.00   52.5    86    2.9   203     4.9   864.9    0.00 
 143   22:00   0.00   52.1    88    3.2   220     4.1   864.9    0.00 
 143   22:10   0.00   51.9    89    3.4   243     5.0   864.9    0.00 
 143   22:20   0.00   51.9    90    2.5   252     3.7   865.0    0.00 
 143   22:30   0.00   52.0    90    1.1   232     2.3   865.1    0.00 
 143   22:40   0.00   51.9    91    5.9   104     8.9   865.2    0.00 
 143   22:50   0.00   51.8    92    4.0   126     8.8   865.2    0.00 
 143   23:00   0.00   51.9    92    1.7   203     3.5   865.2    0.00 
 143   23:10   0.00   51.9    91    1.3   201     3.4   865.3    0.00 
 143   23:20   0.00   51.9    92    5.3   233     7.5   865.2    0.00 
 143   23:30   0.00   51.8    92    5.1   238     7.4   865.1    0.00 
 143   23:40   0.00   52.0    92    5.4   242     7.5   865.1    0.00 
 143   23:50   0.00   52.4    88    5.6   233     7.8   865.1    0.00 
 144    0:00   0.00   52.9    86    4.6   228     7.0   865.1    0.00 
 144    0:10   0.00   52.9    86    1.7    70     4.3   865.2    0.00 
 144    0:20   0.00   52.3    88    3.3   129     5.4   865.1    0.02 
 144    0:30   0.00   52.0    88    1.1   120     2.6   865.2    0.00 
 144    0:40   0.00   52.1    87    0.8   176     2.5   865.1    0.01 
 144    0:50   0.00   52.3    85    0.3   178     1.7   865.2    0.02 
 144    1:00   0.00   52.2    85    3.4   191     5.0   865.1    0.03 
 144    1:10   0.00   51.7    88    4.2   173     5.3   865.1    0.01 
 144    1:20   0.00   51.4    90    4.7   174     7.3   865.0    0.00 
 144    1:30   0.00   51.2    90    4.7   179     7.0   864.9    0.00 
 144    1:40   0.00   50.9    91    4.5   124     6.2   865.1    0.00 
 144    1:50   0.00   50.6    92    4.5    92     6.9   865.2    0.00 
 144    2:00   0.00   50.5    93    4.5    75     7.4   865.3    0.00 
 144    2:10   0.00   50.4    93    4.3   126     6.5   865.2    0.00 
 144    2:20   0.00   50.3    93    6.5   172     9.1   864.8    0.00 
 144    2:30   0.00   50.3    93    4.8   221     8.6   864.6    0.01 
 144    2:40   0.00   50.2    93    3.7   239     6.9   864.6    0.00 
 144    2:50   0.00   49.9    93    1.5   147     4.3   864.6    0.00 
 144    3:00   0.00   49.6    93    0.5   152     2.1   864.6    0.00 
 144    3:10   0.00   49.6    93    1.0   139     3.1   864.7    0.00 
 144    3:20   0.00   48.4    93    1.5   111     2.9   864.9    0.00 
 144    3:30   0.00   48.0    94    1.0   312     2.0   864.8    0.00 
 144    3:40   0.00   48.3    94    0.9   328     2.0   864.9    0.00 
 144    3:50   0.00   48.1    94    1.3   323     2.8   864.9    0.00 
 144    4:00   0.00   48.7    95    2.2   268     3.8   864.8    0.00 
 144    4:10   0.00   49.0    94    2.2   291     3.0   864.8    0.00 
 144    4:20   0.00   49.0    94    2.5   290     3.7   864.9    0.00 
 144    4:30   0.00   49.5    94    2.3   276     3.2   864.9    0.00 
 144    4:40   0.01   49.7    94    3.4   294     5.0   864.9    0.00 
 144    4:50   0.01   49.5    94    1.3   343     3.5   864.9    0.00 
 144    5:00   0.02   49.3    94    1.2   309     3.6   864.9    0.00 
 144    5:10   0.03   49.3    94    1.2   309     3.7   864.9    0.00 
 144    5:20   0.06   49.3    94    2.5   301     5.1   864.9    0.00 
 144    5:30   0.06   49.4    94    4.5   310     6.5   865.0    0.00 
 144    5:40   0.11   49.9    94    2.5   316     4.0   865.1    0.00 
 144    5:50   0.20   51.0    94    1.2   324     3.9   865.1    0.00 
 144    6:00   0.22   53.0    92    0.6   354     2.6   865.1    0.00 
 144    6:10   0.26   53.0    88    2.0   338     3.1   865.1    0.00 
 144    6:20   0.29   54.0    86    1.0   325     2.9   865.1    0.00 
 144    6:30   0.19   54.0    83    1.2   259     2.6   865.0    0.00 
 144    6:40   0.13   52.9    86    1.4   119     3.7   865.0    0.00 
 144    6:50   0.15   53.1    86    1.2   194     2.4   865.0    0.00 
 144    7:00   0.20   53.6    85    0.6   217     2.6   864.9    0.00 
 144    7:10   0.30   53.9    85    1.8   255     3.4   864.9    0.00 
 144    7:20   0.26   53.9    86    1.8   246     4.1   865.0    0.00 
 144    7:30   0.28   54.1    85    1.8   193     3.7   865.0    0.00 
 144    7:40   0.31   55.0    84    1.3   188     2.3   865.0    0.00 
 144    7:50   0.36   55.4    81    1.9    79     3.6   864.9    0.00 
 144    8:00   0.42   55.7    81    2.2    71     4.7   864.9    0.00 
 144    8:10   0.52   56.6    79    2.1    56     4.7   864.8    0.00 
 144    8:20   0.61   56.9    78    2.5    99     4.7   864.8    0.00 
 144    8:30   0.82   58.6    76    2.5    87     6.3   864.7    0.00 
 144    8:40   0.80   59.2    76    3.2   114     6.2   864.8    0.00 
 144    8:50   0.53   58.7    77    4.2   120     7.2   864.9    0.00 
 144    9:00   0.48   59.0    75    3.7   104     6.6   864.9    0.00 
 144    9:10   0.46   58.9    74    4.5    98     7.7   864.9    0.00 
 144    9:20   0.91   59.8    71    4.6    95     7.4   864.8    0.00 
 144    9:30   0.94   60.9    66    3.1    45     6.2   864.8    0.00 
 144    9:40   0.87   62.2    63    2.7    32     5.9   864.9    0.00 
 144    9:50   0.83   61.7    64    3.8     4    10.4   864.9    0.00 
 144   10:00   1.06   63.0    62    1.8    78     5.1   864.9    0.00 
 144   10:10   1.20   64.5    59    2.3   113     4.5   864.9    0.00 
 144   10:20   0.99   65.3    55    3.2    32     6.7   864.8    0.00 
 144   10:30   0.88   64.1    58    2.2   269     4.5   864.8    0.00 
 144   10:40   1.22   65.3    59    3.8   226     7.2   864.8    0.00 
 144   10:50   1.08   65.4    54    2.8   159     5.8   864.6    0.00 
 144   11:00   0.88   66.2    51    2.5   235     4.7   864.6    0.00 
 144   11:10   0.52   65.4    51    1.7   348     4.4   864.5    0.00 
 144   11:20   1.07   66.3    49    3.9   315     9.6   864.4    0.00 
 144   11:30   1.23   66.7    45    4.5   309     9.0   864.4    0.00 
 144   11:40   0.54   66.8    46    3.5   190     7.0   864.3    0.00 
 144   11:50   0.71   66.8    53    3.8   186     7.5   864.2    0.00 
 144   12:00   0.50   66.1    49    3.7   146     5.8   864.1    0.00 
 144   12:10   0.44   66.3    46    1.7   207     3.7   863.9    0.00 
 144   12:20   0.40   66.6    46    3.1   286    12.5   863.6    0.00 
 144   12:30   0.75   66.6    47    7.1   277    15.8   863.5    0.00 
 144   12:40   0.72   67.4    47    6.6   273    13.4   863.4    0.00 
 144   12:50   0.89   68.3    46    7.8   312    16.0   863.4    0.00 
 144   13:00   0.91   68.7    44    7.8   295    13.8   863.4    0.00 
 144   13:10   0.89   67.6    50   10.9   310    16.1   863.4    0.00 
 144   13:20   0.99   67.7    49   12.9   306    19.5   863.4    0.00 
 144   13:30   0.94   67.3    50   11.4   306    18.3   863.3    0.00 
 144   13:40   1.05   68.3    46    8.8   304    13.6   863.2    0.00 
 144   13:50   1.00   68.6    43    9.3   315    14.5   863.1    0.00 
 144   14:00   1.00   68.7    40   10.3   316    17.7   863.1    0.00 
 144   14:10   1.01   68.8    40   10.6   303    18.8   863.1    0.00 
 144   14:20   0.99   69.1    38   11.1   297    17.8   863.0    0.00 
 144   14:30   0.97   68.8    36   12.8   300    18.4   863.0    0.00 
 144   14:40   0.98   69.4    36   11.4   297    18.3   863.0    0.00 
 144   14:50   0.54   68.2    40   11.8   304    18.6   863.0    0.00 
 144   15:00   0.22   65.6    44   10.2   300    14.6   862.9    0.00 
 144   15:10   0.41   65.5    45   11.0   295    16.4   862.8    0.00 
 144   15:20   0.69   67.7    39   10.5   289    15.7   862.7    0.00 
 144   15:30   0.65   69.0    40   10.3   307    16.7   862.6    0.00 
 144   15:40   0.52   67.7    44    8.4   334    15.3   862.5    0.00 
 144   15:50   0.62   68.4    40   10.6   321    15.6   862.3    0.00 
 144   16:00   0.59   68.7    42    9.8   327    15.7   862.1    0.00 
 144   16:10   0.55   68.8    40   10.4   323    15.3   862.0    0.00 
 144   16:20   0.52   68.4    38   10.9   319    16.8   862.0    0.00 
 144   16:30   0.49   68.6    41    8.3   328    12.9   862.0    0.00 
 144   16:40   0.40   68.5    42    8.1   329    12.6   862.0    0.00 
 144   16:50   0.22   66.3    47    9.2   329    14.2   862.0    0.00 
 144   17:00   0.31   65.7    48    7.4   322    11.7   862.0    0.00 
 144   17:10   0.35   67.2    45    8.1   337    11.5   862.0    0.00 
 144   17:20   0.36   67.3    47    6.6   335     9.3   862.0    0.00 
 144   17:30   0.28   66.8    49    7.2   345    11.4   862.0    0.00 
 144   17:40   0.29   66.6    47    6.9   331    12.6   862.0    0.00 
 144   17:50   0.24   67.2    45    6.1   334     9.1   862.0    0.00 
 144   18:00   0.23   67.0    45    5.8   333     9.6   862.0    0.00 
 144   18:10   0.18   66.3    48    5.8   334     9.6   862.0    0.00 
 144   18:20   0.14   65.2    48    7.1   330     9.7   862.0    0.00 
 144   18:30   0.10   63.8    51    6.9   327     9.5   862.0    0.00 
 144   18:40   0.04   62.9    51    6.3   321     8.9   862.0    0.00 
 144   18:50   0.03   61.7    53    5.1   327     7.5   861.9    0.00 
 144   19:00   0.02   61.2    53    4.1   310     5.7   861.9    0.00 
 144   19:10   0.01   60.9    54    3.7   309     6.2   861.8    0.00 
 144   19:20   0.00   60.2    56    3.9    36     6.1   861.9    0.00 
 144   19:30   0.00   61.6    51    3.8    43     6.4   862.0    0.00 
 144   19:40   0.00   61.1    55    1.9    64     3.1   862.0    0.00 
 144   19:50   0.00   59.5    59    1.4   338     2.8   862.0    0.00 
 144   20:00   0.00   58.1    62    2.0   318     3.1   862.1    0.00 
 144   20:10   0.00   57.6    66    2.4   286     3.9   862.1    0.00 
 144   20:20   0.00   55.4    72    3.2   251     3.9   862.2    0.00 
 144   20:30   0.00   55.3    70    3.3   247     4.2   862.3    0.00 
 144   20:40   0.00   53.4    76    4.0   215     5.7   862.4    0.00 

Return to Paradise Valley graphs page.


Western Regional Climate Center,wrcc@dri.edu